Time;durP1;ratioP1;P1;durP2;ratioP2;P2;SDS_P1;SDS_P2;PMS_P1;PMS_P2;Temp;Humidity;BMP_temperature;BMP_pressure;BME280_temperature;BME280_humidity;BME280_pressure;Samples;Min_cycle;Max_cycle;Signal;HPM_P1;HPM_P2
2023/02/12 00:01:43;;;;;;;15.53;8.10;;;0.30;80.40;;;;;;1935857;74;21164;-59
2023/02/12 00:04:12;;;;;;;13.38;7.45;;;0.30;79.70;;;;;;1935674;74;21007;-59
2023/02/12 00:06:41;;;;;;;15.70;8.25;;;0.20;80.10;;;;;;1935867;74;21048;-58
2023/02/12 00:09:10;;;;;;;20.80;14.55;;;0.10;80.30;;;;;;1935628;74;21075;-58
2023/02/12 00:11:39;;;;;;;18.32;16.37;;;0.10;80.50;;;;;;1944367;74;21465;-58
2023/02/12 00:14:08;;;;;;;15.95;9.80;;;0.10;80.60;;;;;;1948802;74;21081;-58
2023/02/12 00:16:37;;;;;;;13.75;9.90;;;0.20;80.80;;;;;;1948911;74;21030;-59
2023/02/12 00:19:07;;;;;;;13.58;9.03;;;0.20;80.80;;;;;;1948932;74;21046;-59
2023/02/12 00:21:36;;;;;;;11.73;10.03;;;0.30;80.90;;;;;;1949044;73;21069;-59
2023/02/12 00:24:05;;;;;;;9.85;7.95;;;0.30;80.80;;;;;;1948917;74;21064;-58
2023/02/12 00:26:35;;;;;;;8.15;5.65;;;0.40;80.90;;;;;;1948928;74;21088;-59
2023/02/12 00:29:04;;;;;;;6.97;6.10;;;0.50;80.90;;;;;;1948923;73;21089;-58
2023/02/12 00:31:33;;;;;;;10.58;7.50;;;0.60;80.90;;;;;;1948665;74;21023;-58
2023/02/12 00:34:02;;;;;;;7.85;5.80;;;0.60;80.60;;;;;;1948798;74;21437;-59
2023/02/12 00:36:32;;;;;;;11.40;6.50;;;0.60;80.10;;;;;;1948698;74;21046;-59
2023/02/12 00:39:01;;;;;;;8.73;6.62;;;0.50;80.30;;;;;;1948633;74;21022;-59
2023/02/12 00:41:32;;;;;;;10.43;7.60;;;0.50;80.50;;;;;;1948719;73;21060;-58
2023/02/12 00:44:01;;;;;;;15.65;7.72;;;0.50;80.70;;;;;;1942562;74;21504;-58
2023/02/12 00:46:30;;;;;;;11.30;10.10;;;0.60;80.70;;;;;;1948712;73;21068;-59
2023/02/12 00:48:59;;;;;;;9.50;7.92;;;0.60;80.70;;;;;;1948806;74;21019;-58
2023/02/12 00:51:28;;;;;;;7.00;5.83;;;0.60;80.50;;;;;;1948606;74;21116;-58
2023/02/12 00:53:57;;;;;;;9.33;5.80;;;0.50;80.80;;;;;;1948767;74;21031;-57
2023/02/12 00:56:26;;;;;;;9.30;6.30;;;0.60;81.60;;;;;;1948805;74;21031;-58
2023/02/12 00:58:55;;;;;;;10.70;6.17;;;0.60;81.10;;;;;;1948988;74;21034;-58
2023/02/12 01:01:25;;;;;;;10.50;6.78;;;0.70;81.00;;;;;;1948910;74;21017;-58
2023/02/12 01:03:54;;;;;;;10.38;6.70;;;0.60;80.50;;;;;;1948999;74;21019;-58
2023/02/12 01:06:23;;;;;;;9.78;7.58;;;0.60;80.80;;;;;;1948886;74;21152;-58
2023/02/12 01:08:53;;;;;;;11.80;6.83;;;0.50;80.90;;;;;;1948969;74;21031;-58
2023/02/12 01:11:22;;;;;;;13.78;7.47;;;0.40;80.80;;;;;;1945253;74;21043;-58
2023/02/12 01:13:51;;;;;;;10.80;6.30;;;0.30;81.10;;;;;;1935694;74;21050;-58
2023/02/12 01:16:23;;;;;;;10.20;6.92;;;0.40;81.70;;;;;;1935768;74;20975;-58
2023/02/12 01:18:54;;;;;;;11.20;6.65;;;0.50;81.80;;;;;;1935768;74;21039;-59
2023/02/12 01:21:27;;;;;;;8.40;5.97;;;0.50;82.00;;;;;;1935955;74;21089;-58
2023/02/12 01:23:57;;;;;;;12.78;7.00;;;0.60;81.90;;;;;;1935103;74;21035;-58
2023/02/12 01:26:26;;;;;;;9.53;7.12;;;0.70;82.00;;;;;;1935921;74;21027;-58
2023/02/12 01:28:58;;;;;;;13.35;7.75;;;0.70;81.90;;;;;;1935827;74;20987;-58
2023/02/12 01:31:31;;;;;;;12.43;8.38;;;0.80;82.00;;;;;;1935816;74;21553;-58
2023/02/12 01:34:01;;;;;;;14.45;10.13;;;0.90;82.30;;;;;;1935947;74;21004;-58
2023/02/12 01:36:32;;;;;;;8.80;7.10;;;0.90;82.40;;;;;;1935931;74;21043;-58
2023/02/12 01:39:06;;;;;;;11.15;6.50;;;0.80;82.30;;;;;;1935784;74;21027;-58
2023/02/12 01:41:34;;;;;;;13.50;7.83;;;0.60;83.10;;;;;;1934377;74;21039;-58
2023/02/12 01:44:19;;;;;;;15.00;8.70;;;0.50;82.90;;;;;;1934613;74;21476;-59
2023/02/12 01:46:51;;;;;;;12.93;8.63;;;0.40;83.30;;;;;;1935837;74;21093;-58
2023/02/12 01:49:26;;;;;;;13.05;7.12;;;0.30;83.40;;;;;;1935513;74;21493;-58
2023/02/12 01:52:01;;;;;;;7.47;5.00;;;0.20;83.40;;;;;;1935951;74;21083;-58
2023/02/12 01:54:31;;;;;;;14.98;5.67;;;0.20;83.80;;;;;;1935850;74;21112;-59
2023/02/12 01:57:01;;;;;;;9.70;5.37;;;0.30;84.10;;;;;;1935842;74;20984;-58
2023/02/12 01:59:31;;;;;;;8.20;5.95;;;0.20;84.30;;;;;;1935790;74;21007;-59
2023/02/12 02:02:01;;;;;;;6.95;5.03;;;0.20;85.30;;;;;;1935980;74;21003;-58
2023/02/12 02:04:32;;;;;;;8.45;5.58;;;0.20;85.30;;;;;;1935918;74;21043;-58
2023/02/12 02:07:07;;;;;;;8.45;6.25;;;0.20;85.60;;;;;;1935541;74;21520;-58
2023/02/12 02:09:37;;;;;;;9.35;5.53;;;0.30;85.10;;;;;;1936094;74;21096;-59
2023/02/12 02:14:58;;;;;;;8.70;5.28;;;0.50;85.60;;;;;;1948201;74;21567;-58
2023/02/12 02:18:01;;;;;;;10.35;6.45;;;0.60;86.10;;;;;;1948354;74;21072;-58
2023/02/12 02:20:35;;;;;;;8.95;6.12;;;0.60;84.70;;;;;;1948907;74;21018;-58
2023/02/12 02:23:10;;;;;;;10.55;5.58;;;0.70;84.90;;;;;;1947844;74;21018;-58
2023/02/12 02:26:17;;;;;;;10.10;5.97;;;0.80;84.90;;;;;;1947997;74;21493;-59
2023/02/12 02:28:52;;;;;;;10.10;5.85;;;1.00;85.60;;;;;;1948160;73;21100;-58
2023/02/12 02:31:32;;;;;;;9.18;6.50;;;1.00;85.00;;;;;;1948995;73;21015;-58
2023/02/12 02:34:12;;;;;;;12.60;6.08;;;1.00;84.90;;;;;;1948863;74;21038;-59
2023/02/12 02:36:50;;;;;;;9.73;6.30;;;1.10;85.20;;;;;;1948677;74;21050;-58
2023/02/12 02:39:38;;;;;;;12.55;6.08;;;1.10;85.10;;;;;;1948801;74;21461;-59
2023/02/12 02:42:34;;;;;;;12.95;7.45;;;1.10;84.90;;;;;;1948833;74;21078;-58
2023/02/12 02:45:15;;;;;;;12.55;6.85;;;1.20;85.00;;;;;;1949148;73;21465;-59
2023/02/12 02:47:49;;;;;;;9.35;5.65;;;1.30;84.90;;;;;;1947657;74;21014;-58
2023/02/12 02:50:23;;;;;;;10.08;5.45;;;1.40;85.10;;;;;;1948560;73;21096;-58
2023/02/12 02:53:13;;;;;;;8.93;5.97;;;1.50;85.10;;;;;;1949128;73;21022;-59
2023/02/12 02:55:51;;;;;;;8.25;5.58;;;1.60;85.50;;;;;;1947169;74;21077;-58
2023/02/12 02:58:32;;;;;;;8.10;5.33;;;1.50;85.00;;;;;;1948823;74;21527;-58
2023/02/12 03:01:04;;;;;;;10.60;5.70;;;1.50;85.10;;;;;;1947628;74;21046;-59
2023/02/12 03:03:36;;;;;;;7.87;5.05;;;1.60;85.60;;;;;;1948835;74;21100;-58
2023/02/12 03:06:11;;;;;;;8.75;4.90;;;1.60;86.00;;;;;;1949053;74;21108;-58
2023/02/12 03:08:40;;;;;;;;;;;1.50;85.80;;;;;;1951869;74;21039;-59
2023/02/12 03:11:24;;;;;;;6.15;4.78;;;1.50;85.70;;;;;;1948789;73;20135;-58
2023/02/12 03:13:59;;;;;;;7.28;5.28;;;1.50;85.50;;;;;;1948769;73;21497;-58
2023/02/12 03:16:33;;;;;;;5.20;4.70;;;1.50;87.30;;;;;;1948740;74;21011;-58
2023/02/12 03:19:08;;;;;;;5.87;4.67;;;1.40;86.40;;;;;;1947292;74;21014;-58
2023/02/12 03:21:42;;;;;;;10.03;5.08;;;1.30;86.20;;;;;;1948990;74;21002;-59
2023/02/12 03:24:14;;;;;;;7.12;4.60;;;1.30;86.60;;;;;;1947213;74;21010;-59
2023/02/12 03:26:58;;;;;;;7.83;5.65;;;1.40;88.30;;;;;;1948852;74;21529;-58
2023/02/12 03:29:27;;;;;;;7.97;5.45;;;1.40;88.10;;;;;;1947247;73;21046;-59
2023/02/12 03:32:01;;;;;;;8.50;5.90;;;1.30;87.60;;;;;;1948959;74;21007;-58
2023/02/12 03:34:39;;;;;;;11.97;7.00;;;1.30;87.50;;;;;;1949108;73;21526;-58
2023/02/12 03:37:19;;;;;;;9.63;7.03;;;1.20;87.80;;;;;;1948879;73;21019;-58
2023/02/12 03:39:57;;;;;;;9.60;6.08;;;1.20;87.60;;;;;;1948745;73;21030;-58
2023/02/12 03:42:29;;;;;;;9.80;6.33;;;1.10;88.30;;;;;;1947292;74;21030;-58
2023/02/12 03:45:18;;;;;;;7.85;5.97;;;1.10;87.60;;;;;;1948104;73;21023;-59
2023/02/12 03:47:59;;;;;;;12.90;5.67;;;1.10;88.60;;;;;;1948530;74;21093;-58
2023/02/12 03:50:40;;;;;;;8.85;6.45;;;1.10;87.90;;;;;;1930764;74;21023;-59
2023/02/12 03:53:09;;;;;;;11.55;6.17;;;1.10;88.00;;;;;;1948740;74;20995;-58
2023/02/12 03:55:40;;;;;;;7.90;5.58;;;1.30;88.00;;;;;;1948862;73;21007;-59
2023/02/12 03:58:12;;;;;;;10.25;6.50;;;1.30;88.70;;;;;;1948898;74;20983;-58
2023/02/12 04:00:41;;;;;;;12.20;5.78;;;1.30;88.30;;;;;;1949074;74;21058;-59
2023/02/12 04:03:10;;;;;;;9.15;5.45;;;1.30;87.60;;;;;;1948907;74;21026;-59
2023/02/12 04:05:39;;;;;;;9.05;5.42;;;1.40;87.90;;;;;;1948919;74;20995;-58
2023/02/12 04:08:11;;;;;;;8.85;6.90;;;1.40;88.80;;;;;;1948982;74;21022;-58
2023/02/12 04:11:03;;;;;;;7.70;5.85;;;1.40;88.60;;;;;;1948902;74;21019;-59
2023/02/12 04:13:44;;;;;;;9.78;4.92;;;1.30;87.90;;;;;;1948912;74;21081;-58
2023/02/12 04:16:19;;;;;;;6.87;5.62;;;1.30;88.10;;;;;;1948354;74;21042;-57
2023/02/12 04:18:49;;;;;;;5.90;4.87;;;1.30;88.00;;;;;;1948679;74;21093;-58
2023/02/12 04:21:39;;;;;;;6.15;5.20;;;1.40;88.30;;;;;;1948940;74;21030;-57
2023/02/12 04:24:20;;;;;;;5.87;5.28;;;1.40;89.80;;;;;;1948205;74;21015;-58
2023/02/12 04:27:07;;;;;;;8.05;5.35;;;1.30;88.30;;;;;;1948181;74;21097;-57
2023/02/12 04:29:44;;;;;;;7.80;5.90;;;1.30;88.30;;;;;;1948878;74;21060;-57
2023/02/12 04:32:18;;;;;;;7.35;5.40;;;1.30;88.40;;;;;;1948493;74;21098;-58
2023/02/12 04:35:05;;;;;;;5.20;4.70;;;1.40;88.90;;;;;;1948887;73;21047;-58
2023/02/12 04:37:43;;;;;;;6.03;4.78;;;1.40;88.90;;;;;;1948726;73;21035;-57
2023/02/12 04:40:17;;;;;;;12.15;7.00;;;1.50;89.60;;;;;;1948831;73;21088;-57
2023/02/12 04:42:50;;;;;;;11.85;6.47;;;1.40;89.70;;;;;;1948930;73;21084;-58
2023/02/12 04:45:27;;;;;;;8.53;5.70;;;1.30;88.80;;;;;;1948813;73;20975;-57
2023/02/12 04:47:57;;;;;;;5.42;4.30;;;1.40;89.10;;;;;;1947560;74;21051;-58
2023/02/12 04:50:26;;;;;;;5.28;4.28;;;1.50;88.90;;;;;;1948620;73;21039;-58
2023/02/12 04:52:55;;;;;;;5.37;3.35;;;1.60;89.00;;;;;;1948667;73;21046;-57
2023/02/12 04:55:24;;;;;;;5.30;4.17;;;1.70;89.30;;;;;;1948651;73;21023;-57
2023/02/12 04:57:53;;;;;;;4.22;3.75;;;1.80;88.50;;;;;;1948651;74;21007;-57
2023/02/12 05:00:22;;;;;;;5.20;3.92;;;1.80;88.30;;;;;;1948729;74;21006;-58
2023/02/12 05:02:51;;;;;;;6.58;3.70;;;1.90;88.30;;;;;;1948660;73;21125;-57
2023/02/12 05:05:20;;;;;;;6.25;4.35;;;2.00;88.50;;;;;;1948695;74;21015;-58
2023/02/12 05:07:49;;;;;;;8.93;6.12;;;2.20;88.20;;;;;;1948688;74;20999;-57
2023/02/12 05:10:19;;;;;;;8.58;4.85;;;2.20;88.40;;;;;;1948776;74;21093;-57
2023/02/12 05:12:48;;;;;;;6.28;4.65;;;2.30;87.90;;;;;;1948663;74;21022;-58
2023/02/12 05:15:17;;;;;;;5.67;4.30;;;2.30;87.80;;;;;;1943376;73;21116;-57
2023/02/12 05:17:46;;;;;;;7.70;3.90;;;2.40;88.10;;;;;;1943149;74;21086;-58
2023/02/12 05:20:15;;;;;;;9.00;4.22;;;2.40;88.00;;;;;;1943166;74;20999;-57
2023/02/12 05:22:44;;;;;;;4.90;4.28;;;2.40;88.10;;;;;;1943062;74;21007;-57
2023/02/12 05:25:13;;;;;;;7.03;4.95;;;2.40;88.10;;;;;;1943146;74;21120;-57
2023/02/12 05:27:42;;;;;;;4.55;3.60;;;2.50;88.00;;;;;;1943046;74;21007;-58
2023/02/12 05:30:12;;;;;;;6.40;4.42;;;2.50;87.90;;;;;;1943078;74;21041;-57
2023/02/12 05:32:41;;;;;;;7.65;4.20;;;2.50;88.00;;;;;;1943054;74;21092;-57
2023/02/12 05:35:10;;;;;;;5.15;4.15;;;2.60;88.00;;;;;;1943167;74;21473;-57
2023/02/12 05:37:39;;;;;;;6.58;4.25;;;2.60;88.00;;;;;;1943098;74;21011;-57
2023/02/12 05:40:09;;;;;;;8.75;4.55;;;2.60;87.90;;;;;;1943197;74;21015;-58
2023/02/12 05:42:38;;;;;;;6.25;3.95;;;2.70;88.10;;;;;;1943158;74;21002;-58
2023/02/12 05:45:08;;;;;;;7.85;4.42;;;2.70;88.00;;;;;;1943274;74;21027;-58
2023/02/12 05:47:37;;;;;;;4.85;3.95;;;2.70;88.10;;;;;;1943049;74;21069;-57
2023/02/12 05:50:08;;;;;;;6.42;4.33;;;2.80;88.10;;;;;;1943260;74;21019;-57
2023/02/12 05:52:37;;;;;;;7.20;4.90;;;2.80;88.10;;;;;;1942861;74;21039;-58
2023/02/12 05:55:07;;;;;;;4.25;3.80;;;2.80;87.90;;;;;;1943116;74;21072;-58
2023/02/12 05:57:35;;;;;;;7.15;3.77;;;2.90;88.00;;;;;;1943109;74;21065;-57
2023/02/12 06:00:06;;;;;;;3.42;3.12;;;2.90;88.00;;;;;;1943122;74;21544;-58
2023/02/12 06:02:37;;;;;;;5.50;4.33;;;2.90;87.90;;;;;;1942583;74;21055;-57
2023/02/12 06:05:07;;;;;;;5.37;3.90;;;3.00;87.80;;;;;;1943385;74;21007;-57
2023/02/12 06:07:36;;;;;;;6.33;4.33;;;3.00;87.80;;;;;;1943201;74;21491;-57
2023/02/12 06:10:05;;;;;;;4.42;3.27;;;3.00;87.90;;;;;;1943228;74;21080;-57
2023/02/12 06:12:35;;;;;;;5.03;3.22;;;3.10;87.80;;;;;;1943198;74;21011;-57
2023/02/12 06:15:04;;;;;;;5.35;2.90;;;3.10;87.70;;;;;;1939014;74;21129;-57
2023/02/12 06:17:34;;;;;;;4.50;2.90;;;3.20;87.30;;;;;;1935588;74;21017;-58
2023/02/12 06:20:04;;;;;;;11.38;3.25;;;3.30;87.30;;;;;;1935649;74;21062;-57
2023/02/12 06:22:33;;;;;;;6.37;3.30;;;3.30;87.30;;;;;;1935625;74;21007;-57
2023/02/12 06:25:01;;;;;;;7.85;3.67;;;3.30;87.30;;;;;;1935731;74;21081;-58
2023/02/12 06:27:30;;;;;;;7.55;4.03;;;3.40;87.30;;;;;;1935657;74;21524;-58
2023/02/12 06:29:59;;;;;;;6.97;4.03;;;3.40;87.30;;;;;;1935622;74;21019;-57
2023/02/12 06:32:28;;;;;;;6.87;4.03;;;3.50;87.40;;;;;;1935640;74;21160;-58
2023/02/12 06:34:57;;;;;;;4.90;3.62;;;3.60;87.00;;;;;;1935625;74;21524;-58
2023/02/12 06:37:26;;;;;;;13.72;7.20;;;3.70;87.10;;;;;;1935535;74;21061;-57
2023/02/12 06:39:56;;;;;;;5.97;4.35;;;3.80;87.00;;;;;;1935502;74;21091;-58
2023/02/12 06:42:25;;;;;;;8.38;4.65;;;3.90;87.00;;;;;;1935661;74;21035;-58
2023/02/12 06:44:55;;;;;;;7.62;4.95;;;4.00;86.70;;;;;;1935037;74;21056;-57
2023/02/12 06:47:24;;;;;;;6.45;3.60;;;4.00;86.50;;;;;;1935804;74;21587;-58
2023/02/12 06:49:53;;;;;;;9.03;4.20;;;4.10;86.40;;;;;;1935760;74;21031;-58
2023/02/12 06:52:22;;;;;;;8.33;4.40;;;4.10;86.40;;;;;;1935627;74;21101;-58
2023/02/12 06:54:51;;;;;;;6.95;2.87;;;4.20;86.30;;;;;;1935739;74;21010;-57
2023/02/12 06:57:20;;;;;;;5.92;3.37;;;4.20;84.10;;;;;;1935814;74;21012;-58
2023/02/12 06:59:50;;;;;;;4.40;2.98;;;4.20;83.90;;;;;;1935747;74;21015;-58
2023/02/12 07:02:19;;;;;;;2.00;1.77;;;4.10;83.40;;;;;;1935709;74;21500;-58
2023/02/12 07:04:48;;;;;;;4.90;2.52;;;4.10;82.60;;;;;;1935715;74;21007;-58
2023/02/12 07:07:17;;;;;;;3.55;3.20;;;4.10;83.40;;;;;;1935713;74;21003;-58
2023/02/12 07:09:47;;;;;;;3.05;2.27;;;4.10;82.90;;;;;;1935274;74;21096;-58
2023/02/12 07:12:16;;;;;;;4.40;2.40;;;4.10;82.60;;;;;;1935703;74;21477;-58
2023/02/12 07:14:45;;;;;;;3.67;2.72;;;4.10;82.90;;;;;;1936820;73;21108;-58
2023/02/12 07:17:15;;;;;;;3.40;2.08;;;4.10;83.10;;;;;;1943191;74;21070;-58
2023/02/12 07:19:44;;;;;;;4.80;1.80;;;4.10;82.60;;;;;;1943205;74;21055;-57
2023/02/12 07:22:13;;;;;;;3.25;2.40;;;4.20;82.80;;;;;;1943194;74;21018;-57
2023/02/12 07:24:42;;;;;;;1.17;1.07;;;4.20;82.60;;;;;;1943204;74;21069;-58
2023/02/12 07:27:11;;;;;;;2.90;2.15;;;4.30;82.00;;;;;;1943185;74;21027;-57
2023/02/12 07:29:40;;;;;;;3.00;2.55;;;4.30;82.40;;;;;;1943122;74;21180;-57
2023/02/12 07:32:09;;;;;;;12.50;4.33;;;4.40;82.70;;;;;;1943289;74;21023;-58
2023/02/12 07:34:38;;;;;;;6.25;3.20;;;4.40;83.00;;;;;;1943233;74;21003;-57
2023/02/12 07:37:07;;;;;;;4.28;2.70;;;4.50;82.90;;;;;;1943219;74;20987;-58
2023/02/12 07:39:36;;;;;;;3.37;2.20;;;4.50;82.80;;;;;;1943454;74;21003;-58
2023/02/12 07:42:07;;;;;;;5.35;3.27;;;4.60;81.70;;;;;;1943114;74;21019;-58
2023/02/12 07:44:36;;;;;;;4.78;3.37;;;4.70;82.70;;;;;;1943256;74;21104;-57
2023/02/12 07:47:05;;;;;;;6.05;2.95;;;4.70;81.70;;;;;;1943208;74;21011;-58
2023/02/12 07:49:35;;;;;;;2.47;2.22;;;4.80;81.30;;;;;;1943122;74;21062;-58
2023/02/12 07:52:04;;;;;;;4.15;2.40;;;4.80;81.20;;;;;;1943079;74;21050;-58
2023/02/12 07:54:33;;;;;;;4.25;2.45;;;4.90;80.60;;;;;;1943206;74;21101;-58
2023/02/12 07:57:02;;;;;;;4.80;1.70;;;5.00;81.90;;;;;;1943101;74;21019;-58
2023/02/12 07:59:31;;;;;;;3.22;2.37;;;5.00;81.70;;;;;;1943119;74;21015;-57
2023/02/12 08:02:00;;;;;;;2.45;1.98;;;5.10;79.50;;;;;;1943077;74;21038;-58
2023/02/12 08:04:29;;;;;;;2.67;1.67;;;5.20;79.10;;;;;;1943138;74;21446;-57
2023/02/12 08:06:59;;;;;;;1.90;1.25;;;5.40;75.60;;;;;;1943088;74;21023;-57
2023/02/12 08:09:32;;;;;;;3.85;2.33;;;5.40;76.00;;;;;;1943008;74;21015;-58
2023/02/12 08:12:01;;;;;;;2.45;1.90;;;5.50;77.90;;;;;;1942977;74;21450;-57
2023/02/12 08:14:30;;;;;;;3.80;2.30;;;5.60;76.30;;;;;;1942900;74;21096;-57
2023/02/12 08:17:00;;;;;;;3.12;1.92;;;5.60;74.90;;;;;;1937186;73;21112;-57
2023/02/12 08:19:28;;;;;;;5.83;3.15;;;5.60;75.90;;;;;;1935666;74;20980;-58
2023/02/12 08:21:58;;;;;;;2.77;1.60;;;5.60;75.40;;;;;;1935212;74;21442;-58
2023/02/12 08:24:27;;;;;;;20.48;10.80;;;5.60;74.80;;;;;;1935380;74;21023;-57
2023/02/12 08:26:56;;;;;;;2.02;1.80;;;5.60;76.10;;;;;;1935602;74;21081;-57
2023/02/12 08:29:28;;;;;;;2.37;1.70;;;5.70;75.00;;;;;;1935536;74;21039;-58
2023/02/12 08:32:00;;;;;;;1.95;1.37;;;5.70;76.20;;;;;;1935795;74;21019;-58
2023/02/12 08:34:32;;;;;;;1.60;1.30;;;5.70;75.60;;;;;;1935927;74;21073;-57
2023/02/12 08:37:01;;;;;;;3.77;2.15;;;5.60;76.00;;;;;;1935777;74;21015;-57
2023/02/12 08:39:31;;;;;;;2.87;1.42;;;5.60;76.00;;;;;;1935804;74;21003;-58
2023/02/12 08:42:00;;;;;;;7.80;2.02;;;5.50;76.30;;;;;;1935721;74;21438;-57
2023/02/12 08:44:30;;;;;;;1.72;1.60;;;5.40;77.20;;;;;;1935824;74;20992;-57
2023/02/12 08:46:58;;;;;;;2.72;1.52;;;5.40;78.00;;;;;;1935851;74;21085;-58
2023/02/12 08:49:29;;;;;;;1.55;1.12;;;5.30;78.10;;;;;;1935561;74;21051;-57
2023/02/12 08:52:01;;;;;;;2.67;2.02;;;5.30;78.20;;;;;;1935635;74;21035;-57
2023/02/12 08:54:31;;;;;;;3.15;2.80;;;5.30;78.30;;;;;;1935634;74;21144;-58
2023/02/12 08:57:02;;;;;;;2.20;1.75;;;5.30;78.30;;;;;;1935561;74;21023;-58
2023/02/12 08:59:32;;;;;;;1.60;1.40;;;5.40;78.30;;;;;;1935811;74;21084;-57
2023/02/12 09:02:02;;;;;;;1.87;1.47;;;5.40;78.30;;;;;;1935648;74;20983;-57
2023/02/12 09:04:31;;;;;;;1.20;0.90;;;5.40;78.30;;;;;;1935803;74;21454;-58
2023/02/12 09:07:00;;;;;;;3.33;2.27;;;5.40;77.60;;;;;;1935884;74;21039;-58
2023/02/12 09:09:29;;;;;;;2.33;1.27;;;5.50;78.10;;;;;;1935730;74;21023;-57
2023/02/12 09:11:58;;;;;;;7.00;1.80;;;5.50;77.60;;;;;;1935719;74;21003;-57
2023/02/12 09:14:27;;;;;;;2.37;2.17;;;5.50;77.70;;;;;;1935900;74;21003;-58
2023/02/12 09:16:57;;;;;;;2.80;2.20;;;5.60;78.40;;;;;;1942145;74;21469;-58
2023/02/12 09:19:26;;;;;;;2.05;1.85;;;5.70;78.10;;;;;;1948839;74;21026;-58
2023/02/12 09:21:56;;;;;;;6.28;2.12;;;5.70;77.80;;;;;;1948748;74;21342;-57
2023/02/12 09:24:26;;;;;;;9.68;2.30;;;5.80;76.60;;;;;;1948726;73;21072;-57
2023/02/12 09:26:55;;;;;;;2.83;1.77;;;5.80;76.50;;;;;;1948767;74;21401;-58
2023/02/12 09:29:25;;;;;;;1.72;1.57;;;5.80;74.60;;;;;;1948941;74;21100;-57
2023/02/12 09:31:58;;;;;;;3.55;1.50;;;5.80;71.50;;;;;;1948828;74;21097;-57
2023/02/12 09:34:27;;;;;;;2.17;1.65;;;5.80;71.00;;;;;;1948849;74;21076;-58
2023/02/12 09:36:56;;;;;;;3.65;2.67;;;5.80;71.80;;;;;;1948899;73;21077;-57
2023/02/12 09:39:27;;;;;;;2.10;1.60;;;5.80;72.90;;;;;;1948984;73;21487;-58
2023/02/12 09:42:10;;;;;;;1.22;1.10;;;5.80;72.00;;;;;;1948884;73;21038;-57
2023/02/12 09:45:15;;;;;;;6.37;2.47;;;5.80;72.00;;;;;;1948928;74;21015;-58
2023/02/12 09:48:06;;;;;;;5.60;2.30;;;5.80;73.40;;;;;;1948019;74;21122;-58
2023/02/12 09:50:41;;;;;;;1.98;0.88;;;5.70;72.00;;;;;;1947599;73;21055;-57
2023/02/12 09:53:15;;;;;;;3.25;2.25;;;5.70;71.50;;;;;;1948781;73;21046;-57
2023/02/12 09:55:45;;;;;;;4.53;2.47;;;5.60;72.40;;;;;;1947940;74;21039;-57
2023/02/12 09:58:19;;;;;;;4.45;2.37;;;5.50;73.10;;;;;;1948694;73;21007;-57
2023/02/12 10:00:49;;;;;;;1.70;1.27;;;5.50;73.40;;;;;;1924733;74;21031;-57
2023/02/12 10:03:18;;;;;;;1.87;1.30;;;5.50;73.20;;;;;;1948989;74;21007;-57
2023/02/12 10:05:52;;;;;;;5.72;2.02;;;5.50;73.80;;;;;;1948932;74;21018;-57
2023/02/12 10:08:28;;;;;;;;;;;5.40;74.70;;;;;;1951812;74;21030;-56
2023/02/12 10:11:12;;;;;;;4.47;2.12;;;5.40;75.20;;;;;;1948913;74;20139;-58
2023/02/12 10:13:51;;;;;;;3.60;2.37;;;5.30;76.10;;;;;;1948856;73;21508;-57
2023/02/12 10:16:45;;;;;;;3.42;2.37;;;5.30;77.00;;;;;;1948543;73;21080;-57
2023/02/12 10:19:29;;;;;;;3.02;2.00;;;5.20;77.60;;;;;;1948828;73;21482;-58
2023/02/12 10:22:24;;;;;;;6.90;3.83;;;5.20;78.20;;;;;;1948951;74;21414;-59
2023/02/12 10:25:08;;;;;;;4.63;1.90;;;5.20;77.80;;;;;;1949051;73;21442;-59
2023/02/12 10:27:42;;;;;;;3.67;2.30;;;5.30;78.40;;;;;;1948923;74;21274;-59
2023/02/12 10:30:20;;;;;;;5.05;2.30;;;5.30;77.80;;;;;;1948593;74;21504;-59
2023/02/12 10:32:51;;;;;;;5.03;2.60;;;5.40;77.50;;;;;;1949054;73;21528;-58
2023/02/12 10:35:22;;;;;;;3.00;1.95;;;5.50;76.90;;;;;;1947336;74;21174;-58
2023/02/12 10:38:06;;;;;;;3.20;2.22;;;5.60;76.60;;;;;;1948987;73;20983;-58
2023/02/12 10:40:37;;;;;;;1.82;1.42;;;5.70;77.10;;;;;;1948872;74;21017;-58
2023/02/12 10:43:06;;;;;;;1.50;1.40;;;5.80;76.60;;;;;;1948786;74;21473;-57
2023/02/12 10:45:38;;;;;;;2.77;2.35;;;5.90;74.50;;;;;;1948811;73;21108;-59
2023/02/12 10:48:22;;;;;;;4.33;2.08;;;6.10;74.60;;;;;;1948748;73;21076;-58
2023/02/12 10:51:00;;;;;;;1.30;1.20;;;6.20;75.10;;;;;;1948889;73;21043;-58
2023/02/12 10:53:38;;;;;;;3.17;1.27;;;6.20;70.20;;;;;;1948815;74;21086;-58
2023/02/12 10:56:19;;;;;;;1.47;1.25;;;6.30;70.00;;;;;;1942589;73;21479;-58
2023/02/12 10:58:59;;;;;;;1.00;0.95;;;6.30;68.40;;;;;;1948856;74;21100;-58
2023/02/12 11:01:31;;;;;;;2.55;1.37;;;6.20;68.70;;;;;;1948737;74;21011;-58
2023/02/12 11:04:02;;;;;;;1.22;1.12;;;6.10;70.00;;;;;;1947553;74;21014;-58
2023/02/12 11:06:32;;;;;;;3.33;1.62;;;6.10;70.70;;;;;;1944431;74;21015;-58
2023/02/12 11:09:01;;;;;;;2.87;1.90;;;6.00;70.70;;;;;;1948801;73;21042;-58
2023/02/12 11:11:32;;;;;;;1.82;1.42;;;6.00;71.00;;;;;;1948809;73;21014;-59
2023/02/12 11:14:04;;;;;;;2.72;2.02;;;5.90;70.60;;;;;;1948460;73;21076;-58
2023/02/12 11:16:38;;;;;;;2.12;1.80;;;6.00;71.70;;;;;;1948729;74;21460;-58
2023/02/12 11:19:10;;;;;;;8.93;2.08;;;6.00;71.40;;;;;;1947381;74;21058;-57
2023/02/12 11:21:40;;;;;;;2.80;1.95;;;6.00;71.20;;;;;;1946928;74;21046;-58
2023/02/12 11:24:29;;;;;;;4.85;2.83;;;6.00;71.60;;;;;;1948796;73;21014;-58
2023/02/12 11:27:13;;;;;;;3.50;1.87;;;6.10;71.10;;;;;;1948777;74;21055;-56
2023/02/12 11:29:43;;;;;;;1.57;1.47;;;6.10;71.10;;;;;;1946404;74;21591;-57
2023/02/12 11:32:17;;;;;;;3.90;1.75;;;6.10;70.20;;;;;;1948904;73;21053;-57
2023/02/12 11:34:49;;;;;;;2.22;1.52;;;6.10;70.10;;;;;;1948117;74;21086;-57
2023/02/12 11:37:19;;;;;;;2.90;1.80;;;6.10;70.20;;;;;;1923767;74;21507;-57
2023/02/12 11:39:50;;;;;;;3.02;1.85;;;6.10;70.80;;;;;;1948920;74;21043;-57
2023/02/12 11:42:22;;;;;;;1.40;1.07;;;6.10;70.50;;;;;;1948894;73;21031;-58
2023/02/12 11:44:54;;;;;;;1.57;1.45;;;6.10;70.40;;;;;;1949036;74;21454;-57
2023/02/12 11:47:29;;;;;;;1.70;1.42;;;6.20;69.30;;;;;;1948801;73;21100;-57
2023/02/12 11:50:03;;;;;;;3.50;1.70;;;6.20;68.20;;;;;;1947819;74;21050;-57
2023/02/12 11:52:36;;;;;;;3.87;1.80;;;6.10;68.80;;;;;;1948813;74;21100;-57
2023/02/12 11:55:10;;;;;;;1.32;1.10;;;6.10;68.40;;;;;;1946818;74;21550;-58
2023/02/12 11:57:49;;;;;;;2.80;1.27;;;6.10;68.30;;;;;;1944145;73;21046;-58
2023/02/12 12:00:20;;;;;;;0.80;0.80;;;6.20;68.40;;;;;;1947381;73;21046;-58
2023/02/12 12:02:59;;;;;;;1.77;1.67;;;6.10;67.50;;;;;;1948829;74;21447;-58
2023/02/12 12:05:31;;;;;;;3.47;1.30;;;6.10;68.20;;;;;;1948416;74;21010;-58
2023/02/12 12:08:03;;;;;;;2.92;2.30;;;6.10;68.20;;;;;;1947437;74;21084;-57
2023/02/12 12:10:37;;;;;;;2.08;1.45;;;6.10;68.50;;;;;;1948533;74;21495;-57
2023/02/12 12:13:15;;;;;;;1.42;1.32;;;6.10;68.00;;;;;;1947828;74;21062;-57
2023/02/12 12:21:54;;;;;;;1.80;1.20;;;6.00;67.20;;;;;;1948744;74;21113;-58
2023/02/12 12:24:40;;;;;;;2.60;1.72;;;6.00;67.60;;;;;;1948538;74;21473;-57
2023/02/12 12:30:44;;;;;;;2.25;1.75;;;5.90;69.40;;;;;;1948897;74;21058;-57
2023/02/12 12:33:35;;;;;;;2.83;1.37;;;5.90;69.20;;;;;;1948439;73;21010;-57
2023/02/12 12:36:28;;;;;;;2.95;2.17;;;5.80;69.30;;;;;;1948796;73;21050;-58
2023/02/12 12:39:12;;;;;;;3.42;1.92;;;5.80;70.50;;;;;;1948859;74;20999;-59
2023/02/12 12:41:59;;;;;;;1.17;1.07;;;5.80;70.70;;;;;;1948866;73;21038;-59
2023/02/12 12:44:54;;;;;;;1.40;1.07;;;5.80;70.00;;;;;;1948776;73;21077;-58
2023/02/12 12:47:53;;;;;;;6.78;1.90;;;5.80;70.10;;;;;;1948879;74;21015;-58
2023/02/12 12:50:42;;;;;;;3.33;1.70;;;5.80;70.90;;;;;;1948847;74;21046;-58
2023/02/12 12:53:28;;;;;;;1.95;1.52;;;5.70;71.10;;;;;;1903030;74;21031;-58
2023/02/12 12:56:09;;;;;;;2.80;1.12;;;5.80;71.50;;;;;;1948491;74;21054;-58
2023/02/12 12:58:59;;;;;;;3.22;1.52;;;5.70;71.70;;;;;;1948889;74;21078;-58
2023/02/12 13:01:31;;;;;;;5.03;1.57;;;5.70;72.00;;;;;;1947214;74;21580;-58
2023/02/12 13:04:36;;;;;;;1.77;1.55;;;5.60;72.40;;;;;;1946592;74;21019;-58
2023/02/12 13:07:17;;;;;;;1.65;1.40;;;5.60;72.70;;;;;;1948887;74;20998;-58
2023/02/12 13:10:04;;;;;;;2.70;1.60;;;5.60;73.60;;;;;;1905164;74;21082;-58
2023/02/12 13:12:42;;;;;;;1.62;1.25;;;5.50;74.00;;;;;;1948713;73;21433;-58
2023/02/12 13:15:14;;;;;;;1.57;1.00;;;5.50;74.10;;;;;;1948769;74;21092;-58
2023/02/12 13:17:58;;;;;;;1.70;1.27;;;5.50;74.40;;;;;;1946871;74;21046;-58
2023/02/12 13:20:43;;;;;;;6.00;1.67;;;5.50;74.70;;;;;;1947258;74;21452;-58
2023/02/12 13:23:25;;;;;;;;;;;5.40;74.90;;;;;;1951867;74;20995;-58
2023/02/12 13:26:23;;;;;;;2.95;1.57;;;5.40;75.10;;;;;;1948546;74;20132;-58
2023/02/12 13:28:55;;;;;;;2.40;1.87;;;5.40;75.40;;;;;;1948860;73;21088;-58
2023/02/12 13:31:27;;;;;;;3.85;1.70;;;5.40;75.50;;;;;;1948813;73;21473;-58
2023/02/12 13:33:58;;;;;;;3.55;1.95;;;5.40;76.10;;;;;;1948862;73;21140;-58
2023/02/12 13:36:27;;;;;;;2.40;1.85;;;5.40;76.20;;;;;;1948843;74;21030;-57
2023/02/12 13:39:14;;;;;;;2.00;1.65;;;5.30;76.50;;;;;;1948775;74;21046;-58
2023/02/12 13:41:45;;;;;;;2.12;1.80;;;5.40;76.50;;;;;;1948715;74;21015;-59